createdAt,value
2023-03-31T00:09:33.493Z,58.22
2023-03-31T00:19:36.383Z,56.76
2023-03-31T00:29:41.503Z,57.02
2023-03-31T00:39:43.654Z,55.35
2023-03-31T00:49:48.299Z,55.75
2023-03-31T00:59:53.107Z,55.43
2023-03-31T01:10:00.054Z,55.36
2023-03-31T01:20:34.570Z,56.71
2023-03-31T01:31:15.411Z,59.50
2023-03-31T01:41:36.184Z,62.48
2023-03-31T01:51:51.883Z,63.27
2023-03-31T02:01:58.413Z,62.34
2023-03-31T02:12:03.843Z,60.17
2023-03-31T02:22:07.924Z,61.18
2023-03-31T02:32:24.315Z,61.45
2023-03-31T02:42:28.335Z,59.98
2023-03-31T02:52:40.707Z,61.38
2023-03-31T03:02:57.896Z,64.24
2023-03-31T03:13:18.628Z,63.02
2023-03-31T03:23:20.727Z,63.46
2023-03-31T03:33:24.941Z,62.10
2023-03-31T03:43:27.065Z,63.29
2023-03-31T03:53:29.169Z,62.31
2023-03-31T04:03:31.254Z,63.36
2023-03-31T04:13:33.328Z,62.73
2023-03-31T04:23:42.722Z,62.41
2023-03-31T04:33:46.037Z,63.64
2023-03-31T04:43:48.169Z,63.40
2023-03-31T04:53:50.375Z,62.39
2023-03-31T05:03:52.505Z,64.31
2023-03-31T05:13:54.838Z,65.83
2023-03-31T05:23:57.876Z,64.04
2023-03-31T05:33:59.957Z,63.64
2023-03-31T05:44:05.072Z,65.01
2023-03-31T05:54:07.300Z,64.80
2023-03-31T06:04:09.642Z,64.17
2023-03-31T06:14:11.998Z,63.14
2023-03-31T06:24:14.086Z,62.90
2023-03-31T06:34:17.821Z,62.67
2023-03-31T06:44:23.083Z,63.73
2023-03-31T06:54:25.257Z,64.63
2023-03-31T07:04:27.483Z,65.97
2023-03-31T07:14:29.541Z,63.46
2023-03-31T07:24:31.652Z,65.91
2023-03-31T07:34:35.539Z,65.98
2023-03-31T07:44:39.615Z,68.48
2023-03-31T07:54:42.042Z,65.75
2023-03-31T08:04:45.286Z,63.21
2023-03-31T08:14:47.360Z,62.50
2023-03-31T08:24:49.451Z,61.21
2023-03-31T08:34:51.634Z,59.94
2023-03-31T08:45:09.277Z,60.51
2023-03-31T08:55:17.055Z,61.41
2023-03-31T09:05:57.221Z,61.11
2023-03-31T09:16:16.621Z,63.41
2023-03-31T09:26:49.403Z,62.16
2023-03-31T09:36:52.419Z,64.74
2023-03-31T09:46:55.579Z,64.95
2023-03-31T09:56:57.819Z,63.95
2023-03-31T10:07:01.081Z,62.45
2023-03-31T10:17:06.509Z,62.95
2023-03-31T10:27:21.122Z,61.21
2023-03-31T10:37:26.204Z,60.45
2023-03-31T10:47:33.248Z,61.01
2023-03-31T10:57:45.280Z,63.49
2023-03-31T11:08:12.313Z,60.20
2023-03-31T11:18:52.910Z,56.77
2023-03-31T11:29:01.238Z,56.08
2023-03-31T11:39:30.432Z,59.43
2023-03-31T11:49:39.124Z,63.13
2023-03-31T11:59:43.084Z,62.00
2023-03-31T12:10:05.760Z,61.30
2023-03-31T12:20:35.052Z,60.12
2023-03-31T12:30:42.012Z,59.92
2023-03-31T12:41:05.330Z,56.67
2023-03-31T12:51:13.606Z,55.54
2023-03-31T13:01:23.732Z,56.82
2023-03-31T13:11:38.268Z,59.80
2023-03-31T13:21:54.524Z,59.67
2023-03-31T13:32:02.899Z,58.97
2023-03-31T13:42:26.677Z,56.92
2023-03-31T13:52:44.118Z,57.93
2023-03-31T14:03:20.653Z,56.77
2023-03-31T14:13:25.255Z,58.09
2023-03-31T14:23:33.191Z,58.86
2023-03-31T14:33:46.352Z,56.62
2023-03-31T14:43:51.028Z,54.11
2023-03-31T14:53:59.714Z,50.89
2023-03-31T15:04:12.673Z,50.82
2023-03-31T15:14:14.804Z,49.68
2023-03-31T15:24:17.858Z,52.02
2023-03-31T15:34:30.721Z,51.71
2023-03-31T15:44:39.683Z,56.67
2023-03-31T15:54:42.159Z,62.34
2023-03-31T16:04:48.494Z,64.13
2023-03-31T16:15:07.528Z,62.93
2023-03-31T16:25:15.344Z,61.99
2023-03-31T16:35:17.615Z,58.69
2023-03-31T16:45:21.714Z,61.17
2023-03-31T16:55:24.274Z,59.70
2023-03-31T17:05:28.053Z,59.04
2023-03-31T17:15:30.592Z,57.06
2023-03-31T17:25:34.437Z,57.96
2023-03-31T17:35:37.155Z,59.78
2023-03-31T17:45:39.274Z,58.89
2023-03-31T17:55:41.426Z,62.10
2023-03-31T18:05:43.968Z,59.21
2023-03-31T18:15:49.086Z,58.26
2023-03-31T18:25:51.619Z,62.77
2023-03-31T18:35:54.148Z,60.40
2023-03-31T18:45:58.660Z,61.35
2023-03-31T18:56:01.330Z,64.31
2023-03-31T19:06:05.931Z,62.21
2023-03-31T19:16:08.437Z,59.34
2023-03-31T19:26:14.494Z,59.38
2023-03-31T19:36:16.976Z,61.58
2023-03-31T19:46:19.177Z,61.99
2023-03-31T19:56:25.071Z,60.91
2023-03-31T20:06:29.029Z,61.46
2023-03-31T20:16:31.595Z,61.28
2023-03-31T20:26:34.595Z,58.70
2023-03-31T20:36:36.695Z,60.07
2023-03-31T20:46:39.396Z,62.03
2023-03-31T20:56:41.723Z,61.93
2023-03-31T21:06:46.717Z,65.06
2023-03-31T21:16:49.126Z,64.52
2023-03-31T21:26:51.317Z,62.84
2023-03-31T21:36:54.003Z,62.60
2023-03-31T21:46:56.329Z,62.48
2023-03-31T21:56:58.849Z,61.72
2023-03-31T22:07:01.254Z,63.28
2023-03-31T22:17:03.824Z,64.65
2023-03-31T22:27:06.660Z,63.98
2023-03-31T22:37:08.940Z,62.23
2023-03-31T22:47:11.412Z,62.05
2023-03-31T22:57:14.656Z,62.48
2023-03-31T23:07:18.108Z,61.82
2023-03-31T23:17:21.385Z,61.12
2023-03-31T23:27:23.501Z,62.69
2023-03-31T23:37:28.403Z,62.89
2023-03-31T23:47:32.462Z,64.63
2023-03-31T23:57:34.578Z,63.34
